PWSweather.com
Personal Weather Stations
Station Observations
INORDPAS37
Bondues, BonduesFR 59910

BonduesBonduesFR 59910

Lat: 50.7, Lon: 3.09

Elevation: 66

Station Type: NetAtmo

Latest ConditionsUpdated 5:21:00 PM GMT+01:01 Friday, May 25, 2018
Currently Today's Max Today's Min Today's Average
Temperature 77.2°F25.1°C 77.4°F25.2°C 58.8°F14.9°C 65.0°F18.3°C
Dew Point 60.8°F16.0°C 61.2°F16.2°C 47.8°F8.8°C 52.9°F11.6°C
Winds 1.3 mph NW2.1 kmh NW 3.8 mph SW6.1 kmh SW - 1.5 mph 2.4 kmh
Wind Gusts 4.9 mph7.9 kmh 10.5 mph16.9 kmh - -
Humidity 61% 73% 61% 70%
Pressure 30.05 in1017.6 mb 30.08 in1018.6 mb 30.02 in1016.6 mb -
Precipitation - 0.03 in0.8 mm - -
Hour Temp Dew Point Humidity Winds Wind Gusts Pressure Precip Precip Rate Daily Precip Total
05:21 PM 77.2°F25.1°C 60.8°F16.0°C 61% 1.3 mph NW2.1 kmh NW 4.9 mph7.9 kmh 30.05 in1017.6 mb 0.00 in0.0 mm 0.00 in0.0 mm 0.03 in0.8 mm
05:01 PM 77.4°F25.2°C 61.0°F16.1°C 61% 1.8 mph NW2.9 kmh NW 4.3 mph6.9 kmh 30.06 in1017.9 mb 0.00 in0.0 mm 0.00 in0.0 mm 0.03 in0.8 mm
04:41 PM 77.2°F25.1°C 61.2°F16.2°C 62% 1.3 mph NW2.1 kmh NW 4.9 mph7.9 kmh 30.06 in1017.9 mb 0.00 in0.0 mm 0.00 in0.0 mm 0.03 in0.8 mm
04:35 PM 76.3°F24.6°C 60.3°F15.7°C 62% 1.3 mph N2.1 kmh N 3.8 mph6.1 kmh 30.06 in1017.9 mb 0.00 in0.0 mm 0.00 in0.0 mm 0.03 in0.8 mm
04:01 PM 76.3°F24.6°C 60.3°F15.7°C 62% 1.3 mph WNW2.1 kmh WNW 4.9 mph7.9 kmh 30.07 in1018.3 mb 0.00 in0.0 mm 0.00 in0.0 mm 0.03 in0.8 mm
03:55 PM 75.7°F24.3°C 60.3°F15.7°C 63% 1.3 mph WNW2.1 kmh WNW 3.8 mph6.1 kmh 30.07 in1018.3 mb 0.00 in0.0 mm 0.00 in0.0 mm 0.03 in0.8 mm
03:35 PM 75.9°F24.4°C 60.8°F16.0°C 64% 1.3 mph WNW2.1 kmh WNW 4.3 mph6.9 kmh 30.07 in1018.3 mb 0.00 in0.0 mm 0.00 in0.0 mm 0.03 in0.8 mm
03:15 PM 75.7°F24.3°C 61.2°F16.2°C 65% 1.8 mph WNW2.9 kmh WNW 4.3 mph6.9 kmh 30.07 in1018.3 mb 0.00 in0.0 mm 0.00 in0.0 mm 0.03 in0.8 mm
02:55 PM 75.0°F23.9°C 60.4°F15.8°C 65% 1.8 mph WNW2.9 kmh WNW 4.9 mph7.9 kmh 30.07 in1018.3 mb 0.00 in0.0 mm 0.00 in0.0 mm 0.03 in0.8 mm
02:35 PM 74.5°F23.6°C 59.9°F15.5°C 65% 1.8 mph WNW2.9 kmh WNW 4.3 mph6.9 kmh 30.08 in1018.6 mb 0.00 in0.0 mm 0.00 in0.0 mm 0.03 in0.8 mm
02:15 PM 73.4°F23.0°C 59.7°F15.4°C 67% 1.3 mph NW2.1 kmh NW 3.1 mph5.0 kmh 30.08 in1018.6 mb 0.00 in0.0 mm 0.00 in0.0 mm 0.03 in0.8 mm
01:49 PM 73.2°F22.9°C 59.5°F15.3°C 67% 1.8 mph NW2.9 kmh NW 4.3 mph6.9 kmh 30.08 in1018.6 mb 0.00 in0.0 mm 0.00 in0.0 mm 0.03 in0.8 mm
01:29 PM 72.7°F22.6°C 59.5°F15.3°C 68% 1.3 mph NW2.1 kmh NW 3.8 mph6.1 kmh 30.07 in1018.3 mb 0.00 in0.0 mm 0.00 in0.0 mm 0.03 in0.8 mm
01:08 PM 71.4°F21.9°C 58.6°F14.8°C 69% 1.3 mph NNW2.1 kmh NNW 5.6 mph9.0 kmh 30.07 in1018.3 mb 0.00 in0.0 mm 0.00 in0.0 mm 0.03 in0.8 mm
12:48 PM 70.7°F21.5°C 57.9°F14.4°C 69% 1.8 mph WNW2.9 kmh WNW 3.8 mph6.1 kmh 30.08 in1018.6 mb 0.00 in0.0 mm 0.00 in0.0 mm 0.03 in0.8 mm
12:28 PM 70.0°F21.1°C 57.7°F14.3°C 70% 1.3 mph W2.1 kmh W 3.8 mph6.1 kmh 30.08 in1018.6 mb 0.00 in0.0 mm 0.00 in0.0 mm 0.03 in0.8 mm
12:07 PM 69.4°F20.8°C 57.6°F14.2°C 71% 1.8 mph WNW2.9 kmh WNW 4.3 mph6.9 kmh 30.08 in1018.6 mb 0.00 in0.0 mm 0.00 in0.0 mm 0.03 in0.8 mm
11:48 AM 68.7°F20.4°C 57.0°F13.9°C 71% 1.8 mph NNW2.9 kmh NNW 3.8 mph6.1 kmh 30.08 in1018.6 mb 0.00 in0.0 mm 0.00 in0.0 mm 0.03 in0.8 mm
11:27 AM 67.6°F19.8°C 56.3°F13.5°C 72% 0.7 mph NNW1.1 kmh NNW 1.8 mph2.9 kmh 30.08 in1018.6 mb 0.00 in0.0 mm 0.00 in0.0 mm 0.03 in0.8 mm
11:07 AM 65.8°F18.8°C 55.0°F12.8°C 73% 3.1 mph NW5.0 kmh NW 10.5 mph16.9 kmh 30.08 in1018.6 mb 0.00 in0.0 mm 0.00 in0.0 mm 0.03 in0.8 mm
10:48 AM 64.4°F18.0°C 53.6°F12.0°C 73% 0.7 mph NW1.1 kmh NW 1.8 mph2.9 kmh 30.07 in1018.3 mb 0.00 in0.0 mm 0.00 in0.0 mm 0.03 in0.8 mm
10:28 AM 63.1°F17.3°C 52.3°F11.3°C 73% 1.3 mph WNW2.1 kmh WNW 3.1 mph5.0 kmh 30.08 in1018.6 mb 0.00 in0.0 mm 0.00 in0.0 mm 0.03 in0.8 mm
10:08 AM 61.9°F16.6°C 51.3°F10.7°C 73% 0.7 mph W1.1 kmh W 1.8 mph2.9 kmh 30.08 in1018.6 mb 0.00 in0.0 mm 0.00 in0.0 mm 0.03 in0.8 mm
09:55 AM 60.6°F15.9°C 50.0°F10.0°C 73% 1.3 mph SW2.1 kmh SW 2.5 mph4.0 kmh 30.07 in1018.3 mb 0.00 in0.0 mm 0.00 in0.0 mm 0.03 in0.8 mm
09:28 AM 60.4°F15.8°C 49.8°F9.9°C 73% 1.3 mph S2.1 kmh S 2.5 mph4.0 kmh 30.07 in1018.3 mb 0.00 in0.0 mm 0.00 in0.0 mm 0.03 in0.8 mm
09:07 AM 60.3°F15.7°C 49.6°F9.8°C 73% 0.7 mph SSW1.1 kmh SSW 1.8 mph2.9 kmh 30.08 in1018.6 mb 0.00 in0.0 mm 0.00 in0.0 mm 0.03 in0.8 mm
08:47 AM 59.9°F15.5°C 49.3°F9.6°C 73% 0.7 mph SW1.1 kmh SW 1.8 mph2.9 kmh 30.08 in1018.6 mb 0.00 in0.0 mm 0.00 in0.0 mm 0.03 in0.8 mm
08:26 AM 59.9°F15.5°C 49.3°F9.6°C 73% 1.3 mph SW2.1 kmh SW 3.1 mph5.0 kmh 30.07 in1018.3 mb 0.00 in0.0 mm 0.00 in0.0 mm 0.03 in0.8 mm
08:07 AM 59.7°F15.4°C 49.1°F9.5°C 73% 1.3 mph SW2.1 kmh SW 4.3 mph6.9 kmh 30.07 in1018.3 mb 0.00 in0.0 mm 0.00 in0.0 mm 0.03 in0.8 mm
07:46 AM 59.5°F15.3°C 48.9°F9.4°C 73% 2.5 mph SW4.0 kmh SW 5.6 mph9.0 kmh 30.07 in1018.3 mb 0.00 in0.0 mm 0.00 in0.0 mm 0.03 in0.8 mm
07:26 AM 59.4°F15.2°C 48.7°F9.3°C 73% 1.8 mph SW2.9 kmh SW 4.9 mph7.9 kmh 30.06 in1017.9 mb 0.00 in0.0 mm 0.00 in0.0 mm 0.03 in0.8 mm
07:05 AM 59.2°F15.1°C 48.6°F9.2°C 73% 1.3 mph SW2.1 kmh SW 3.1 mph5.0 kmh 30.06 in1017.9 mb 0.00 in0.0 mm 0.00 in0.0 mm 0.03 in0.8 mm
06:45 AM 59.2°F15.1°C 48.6°F9.2°C 73% 1.8 mph WSW2.9 kmh WSW 4.3 mph6.9 kmh 30.06 in1017.9 mb 0.00 in0.0 mm 0.00 in0.0 mm 0.03 in0.8 mm
06:25 AM 59.2°F15.1°C 48.2°F9.0°C 72% 1.8 mph SW2.9 kmh SW 3.8 mph6.1 kmh 30.06 in1017.9 mb 0.00 in0.0 mm 0.00 in0.0 mm 0.03 in0.8 mm
06:04 AM 59.0°F15.0°C 48.0°F8.9°C 72% 1.8 mph SW2.9 kmh SW 4.9 mph7.9 kmh 30.05 in1017.6 mb 0.00 in0.0 mm 0.00 in0.0 mm 0.03 in0.8 mm
05:45 AM 58.8°F14.9°C 47.8°F8.8°C 72% 1.8 mph SW2.9 kmh SW 4.9 mph7.9 kmh 30.06 in1017.9 mb 0.00 in0.0 mm 0.00 in0.0 mm 0.03 in0.8 mm
05:24 AM 58.8°F14.9°C 47.8°F8.8°C 72% 1.8 mph SW2.9 kmh SW 4.3 mph6.9 kmh 30.05 in1017.6 mb 0.00 in0.0 mm 0.00 in0.0 mm 0.03 in0.8 mm
05:05 AM 58.8°F14.9°C 47.8°F8.8°C 72% 1.3 mph SW2.1 kmh SW 4.9 mph7.9 kmh 30.04 in1017.3 mb 0.00 in0.0 mm 0.00 in0.0 mm 0.03 in0.8 mm
04:44 AM 58.8°F14.9°C 47.8°F8.8°C 72% 1.8 mph WSW2.9 kmh WSW 4.3 mph6.9 kmh 30.03 in1016.9 mb 0.00 in0.0 mm 0.00 in0.0 mm 0.03 in0.8 mm
04:24 AM 59.0°F15.0°C 48.0°F8.9°C 72% 2.5 mph SW4.0 kmh SW 4.3 mph6.9 kmh 30.03 in1016.9 mb 0.00 in0.0 mm 0.00 in0.0 mm 0.03 in0.8 mm
04:02 AM 59.2°F15.1°C 48.2°F9.0°C 72% 1.8 mph SW2.9 kmh SW 6.9 mph11.1 kmh 30.03 in1016.9 mb 0.00 in0.0 mm 0.00 in0.0 mm 0.03 in0.8 mm
03:43 AM 59.2°F15.1°C 48.2°F9.0°C 72% 1.3 mph WSW2.1 kmh WSW 3.1 mph5.0 kmh 30.03 in1016.9 mb 0.00 in0.0 mm 0.00 in0.0 mm 0.03 in0.8 mm
03:22 AM 59.4°F15.2°C 48.4°F9.1°C 72% 1.8 mph SW2.9 kmh SW 3.8 mph6.1 kmh 30.03 in1016.9 mb 0.00 in0.0 mm 0.00 in0.0 mm 0.03 in0.8 mm
03:06 AM 59.4°F15.2°C 48.4°F9.1°C 72% 1.3 mph SW2.1 kmh SW 3.1 mph5.0 kmh 30.03 in1016.9 mb 0.00 in0.0 mm 0.00 in0.0 mm 0.03 in0.8 mm
02:46 AM 59.5°F15.3°C 48.6°F9.2°C 72% 1.3 mph W2.1 kmh W 2.5 mph4.0 kmh 30.02 in1016.6 mb 0.00 in0.0 mm 0.00 in0.0 mm 0.03 in0.8 mm
02:26 AM 59.7°F15.4°C 48.7°F9.3°C 72% 1.3 mph W2.1 kmh W 3.1 mph5.0 kmh 30.02 in1016.6 mb 0.00 in0.0 mm 0.00 in0.0 mm 0.03 in0.8 mm
02:06 AM 59.9°F15.5°C 48.4°F9.1°C 71% 1.3 mph W2.1 kmh W 2.5 mph4.0 kmh 30.03 in1016.9 mb 0.00 in0.0 mm 0.00 in0.0 mm 0.03 in0.8 mm
01:45 AM 60.1°F15.6°C 48.6°F9.2°C 71% 1.3 mph SW2.1 kmh SW 3.8 mph6.1 kmh 30.03 in1016.9 mb 0.00 in0.0 mm 0.00 in0.0 mm 0.03 in0.8 mm
01:25 AM 60.3°F15.7°C 48.7°F9.3°C 71% 1.3 mph WSW2.1 kmh WSW 3.1 mph5.0 kmh 30.03 in1016.9 mb 0.00 in0.0 mm 0.00 in0.0 mm 0.03 in0.8 mm
01:04 AM 60.4°F15.8°C 48.9°F9.4°C 71% 1.3 mph SW2.1 kmh SW 3.8 mph6.1 kmh 30.03 in1016.9 mb 0.00 in0.0 mm 0.00 in0.0 mm 0.03 in0.8 mm
12:45 AM 60.6°F15.9°C 49.1°F9.5°C 71% 1.8 mph WSW2.9 kmh WSW 5.6 mph9.0 kmh 30.03 in1016.9 mb 0.00 in0.0 mm 0.00 in0.0 mm 0.03 in0.8 mm
12:24 AM 61.0°F16.1°C 49.5°F9.7°C 71% 3.8 mph SW6.1 kmh SW 9.4 mph15.1 kmh 30.03 in1016.9 mb 0.00 in0.0 mm 0.00 in0.0 mm 0.03 in0.8 mm
12:04 AM 61.0°F16.1°C 49.5°F9.7°C 71% 1.8 mph WSW2.9 kmh WSW 4.9 mph7.9 kmh 30.03 in1016.9 mb 0.01 in0.3 mm 0.18 in4.6 mm 0.03 in0.8 mm